Time;durP1;ratioP1;P1;durP2;ratioP2;P2;SDS_P1;SDS_P2;PMS_P1;PMS_P2;Temp;Humidity;BMP_temperature;BMP_pressure;BME280_temperature;BME280_humidity;BME280_pressure;Samples;Min_cycle;Max_cycle;Signal;HPM_P1;HPM_P2
2022/03/21 00:00:57;;;;;;;1.45;0.55;;;;;;;10.33;66.96;102248.31;4932927;29;20051;-78
2022/03/21 00:03:29;;;;;;;1.45;0.63;;;;;;;10.31;67.14;102242.16;4932797;29;20052;-82
2022/03/21 00:05:58;;;;;;;1.65;0.73;;;;;;;10.25;68.06;102248.75;4914666;29;20206;-81
2022/03/21 00:08:27;;;;;;;0.43;0.20;;;;;;;10.24;69.38;102241.81;4914388;29;20647;-82
2022/03/21 00:10:57;;;;;;;2.40;0.45;;;;;;;10.22;70.38;102238.25;4930913;29;20083;-81
2022/03/21 00:13:26;;;;;;;1.65;0.63;;;;;;;10.21;71.54;102233.84;4933745;29;20055;-83
2022/03/21 00:15:56;;;;;;;2.63;0.65;;;;;;;10.21;71.77;102232.97;4931963;29;20051;-82
2022/03/21 00:18:27;;;;;;;2.63;0.70;;;;;;;10.20;72.21;102231.22;4931693;29;20098;-80
2022/03/21 00:20:56;;;;;;;2.00;0.60;;;;;;;10.20;72.91;102237.25;4930553;29;20048;-79
2022/03/21 00:23:26;;;;;;;2.60;0.52;;;;;;;10.18;72.44;102228.53;4913922;29;20048;-77
2022/03/21 00:25:54;;;;;;;1.65;0.50;;;;;;;10.12;73.84;102219.53;4914125;29;20509;-76
2022/03/21 00:28:23;;;;;;;2.40;1.17;;;;;;;10.10;75.87;102229.81;4927426;29;20142;-76
2022/03/21 00:30:52;;;;;;;3.80;0.73;;;;;;;10.08;77.30;102241.78;4916447;29;20516;-81
2022/03/21 00:33:21;;;;;;;2.00;0.90;;;;;;;10.03;77.33;102232.84;4923269;29;20117;-79
2022/03/21 00:35:52;;;;;;;2.17;1.17;;;;;;;9.98;75.71;102230.00;4920214;28;20056;-76
2022/03/21 00:38:21;;;;;;;1.45;0.60;;;;;;;9.91;80.34;102220.13;4928241;29;20104;-74
2022/03/21 00:40:50;;;;;;;2.28;0.68;;;;;;;9.84;83.39;102225.78;4913926;29;20474;-75
2022/03/21 00:43:22;;;;;;;1.30;0.43;;;;;;;9.80;80.57;102229.91;4923460;29;20052;-76
2022/03/21 00:45:52;;;;;;;1.83;0.63;;;;;;;9.82;81.93;102236.00;4921317;29;20494;-75
2022/03/21 00:48:20;;;;;;;1.05;0.50;;;;;;;9.76;82.70;102233.09;4933542;29;20135;-76
2022/03/21 00:50:51;;;;;;;2.95;0.55;;;;;;;9.68;79.53;102234.34;4931947;29;20111;-75
2022/03/21 00:53:20;;;;;;;2.67;0.40;;;;;;;9.58;79.85;102232.06;4928612;29;20471;-75
2022/03/21 00:55:49;;;;;;;1.45;0.25;;;;;;;9.48;85.01;102230.63;4914140;29;20151;-75
2022/03/21 00:58:18;;;;;;;2.38;0.60;;;;;;;9.40;86.36;102225.03;4914786;29;20091;-75
2022/03/21 01:00:47;;;;;;;1.42;0.50;;;;;;;9.35;93.84;102223.00;4925170;29;20179;-74
2022/03/21 01:03:15;;;;;;;4.70;0.70;;;;;;;9.29;86.97;102220.94;4926923;29;20083;-75
2022/03/21 01:05:44;;;;;;;1.42;0.50;;;;;;;9.25;89.61;102237.03;4913451;29;20446;-74
2022/03/21 01:08:14;;;;;;;1.27;0.40;;;;;;;9.21;86.07;102222.19;4913837;29;20440;-77
2022/03/21 01:10:42;;;;;;;1.05;0.60;;;;;;;9.17;86.44;102225.38;4913339;29;20083;-75
2022/03/21 01:13:11;;;;;;;2.10;0.45;;;;;;;9.12;87.86;102224.22;4912802;29;20497;-75
2022/03/21 01:15:39;;;;;;;1.65;0.45;;;;;;;9.07;89.51;102220.47;4913127;29;20521;-74
2022/03/21 01:18:08;;;;;;;4.97;1.10;;;;;;;9.02;92.96;102222.78;4915352;29;20067;-75
2022/03/21 01:20:37;;;;;;;4.97;1.25;;;;;;;9.00;99.96;102217.53;4923807;29;20051;-74
2022/03/21 01:23:05;;;;;;;2.70;0.68;;;;;;;8.97;100.00;102201.84;4930787;29;20067;-74
2022/03/21 01:25:35;;;;;;;1.25;0.40;;;;;;;8.95;100.00;102206.03;4932021;29;20111;-74
2022/03/21 01:28:04;;;;;;;4.00;0.80;;;;;;;8.91;100.00;102209.25;4932223;29;20134;-74
2022/03/21 01:30:32;;;;;;;5.75;1.08;;;;;;;8.89;100.00;102216.00;4931781;29;20508;-80
2022/03/21 01:33:01;;;;;;;4.57;0.73;;;;;;;8.88;100.00;102210.75;4931917;29;20052;-80
2022/03/21 01:35:30;;;;;;;1.80;0.85;;;;;;;8.88;100.00;102219.38;4915540;28;20060;-75
2022/03/21 01:37:58;;;;;;;1.52;0.40;;;;;;;8.88;100.00;102213.34;4921256;29;20051;-75
2022/03/21 01:40:27;;;;;;;1.73;0.70;;;;;;;8.85;100.00;102221.78;4932221;29;20082;-74
2022/03/21 01:43:04;;;;;;;1.83;0.90;;;;;;;8.76;100.00;102203.16;4917768;29;20477;-75
2022/03/21 01:45:40;;;;;;;3.92;0.90;;;;;;;8.86;100.00;102212.34;4914491;29;20143;-74
2022/03/21 01:48:10;;;;;;;0.90;0.70;;;;;;;8.84;100.00;102212.25;4913173;29;20142;-75
2022/03/21 01:50:38;;;;;;;3.35;0.70;;;;;;;8.83;100.00;102214.75;4919448;29;20087;-75
2022/03/21 01:55:52;;;;;;;2.58;0.80;;;;;;;8.87;100.00;102202.13;4926421;29;20141;-74
2022/03/21 01:58:24;;;;;;;2.67;0.60;;;;;;;8.88;100.00;102209.06;4913514;29;20055;-76
2022/03/21 02:00:53;;;;;;;5.95;0.90;;;;;;;8.89;100.00;102205.69;4914365;29;20059;-76
2022/03/21 02:03:22;;;;;;;4.25;0.82;;;;;;;8.86;100.00;102200.31;4914381;29;20083;-75
2022/03/21 02:05:51;;;;;;;3.67;0.90;;;;;;;8.88;100.00;102211.63;4924252;29;20083;-74
2022/03/21 02:08:20;;;;;;;2.67;0.95;;;;;;;8.90;100.00;102202.28;4913989;29;20119;-76
2022/03/21 02:10:48;;;;;;;4.03;1.02;;;;;;;8.86;100.00;102197.75;4920689;29;20048;-75
2022/03/21 02:13:18;;;;;;;3.97;0.65;;;;;;;8.81;100.00;102186.25;4944711;29;20485;-74
2022/03/21 02:15:48;;;;;;;4.05;0.60;;;;;;;8.77;100.00;102185.22;4944468;29;20047;-75
2022/03/21 02:18:19;;;;;;;0.57;0.40;;;;;;;8.75;100.00;102188.47;4930867;29;20596;-81
2022/03/21 02:20:49;;;;;;;1.02;0.68;;;;;;;8.75;100.00;102191.03;4915489;29;20063;-77
2022/03/21 02:23:27;;;;;;;1.10;0.40;;;;;;;8.76;100.00;102193.72;4926707;29;20123;-74
2022/03/21 02:25:58;;;;;;;1.88;0.60;;;;;;;8.79;100.00;102203.34;4917736;29;20052;-74
2022/03/21 02:28:28;;;;;;;0.60;0.38;;;;;;;8.74;100.00;102191.84;4930710;29;20110;-76
2022/03/21 02:30:59;;;;;;;1.17;0.70;;;;;;;8.72;100.00;102196.03;4927354;29;20455;-78
2022/03/21 02:33:28;;;;;;;1.55;0.50;;;;;;;8.72;100.00;102202.06;4921739;29;20056;-75
2022/03/21 02:35:57;;;;;;;1.10;0.63;;;;;;;8.71;100.00;102210.63;4930491;29;20051;-75
2022/03/21 02:38:26;;;;;;;2.88;0.82;;;;;;;8.72;100.00;102201.19;4931581;29;20052;-76
2022/03/21 02:40:57;;;;;;;1.10;0.60;;;;;;;8.72;100.00;102203.78;4934331;29;20091;-76
2022/03/21 02:43:25;;;;;;;1.17;0.40;;;;;;;8.73;100.00;102214.19;4930657;29;20051;-76
2022/03/21 02:45:54;;;;;;;1.52;0.50;;;;;;;8.75;100.00;102209.09;4918524;29;20048;-75
2022/03/21 02:48:22;;;;;;;1.33;0.57;;;;;;;8.74;100.00;102199.59;4915581;29;20047;-75
2022/03/21 02:50:58;;;;;;;1.30;0.50;;;;;;;8.73;100.00;102206.47;4930424;29;20585;-74
2022/03/21 02:53:29;;;;;;;4.68;0.63;;;;;;;8.73;100.00;102203.88;4917195;29;20055;-75
2022/03/21 02:56:00;;;;;;;0.90;0.63;;;;;;;8.76;100.00;102211.78;4930733;29;20615;-75
2022/03/21 02:58:28;;;;;;;0.82;0.50;;;;;;;8.78;100.00;102217.06;4931001;29;20711;-75
2022/03/21 03:01:08;;;;;;;1.33;0.60;;;;;;;8.78;100.00;102211.91;4930397;29;20051;-75
2022/03/21 03:03:36;;;;;;;1.73;0.85;;;;;;;8.76;100.00;102214.38;4919330;29;20055;-75
2022/03/21 03:06:05;;;;;;;2.13;0.93;;;;;;;8.76;100.00;102224.69;4914618;29;20075;-76
2022/03/21 03:08:34;;;;;;;2.45;1.10;;;;;;;8.77;100.00;102218.75;4930779;29;20114;-73
2022/03/21 03:11:04;;;;;;;2.65;1.10;;;;;;;8.76;100.00;102226.41;4930660;29;20087;-77
2022/03/21 03:13:33;;;;;;;4.05;0.93;;;;;;;8.76;100.00;102223.81;4912170;29;20044;-78
2022/03/21 03:16:01;;;;;;;3.28;1.00;;;;;;;8.75;100.00;102217.78;4924169;29;20593;-75
2022/03/21 03:18:30;;;;;;;1.25;0.70;;;;;;;8.72;100.00;102216.69;4913780;29;20099;-77
2022/03/21 03:20:59;;;;;;;2.70;0.75;;;;;;;8.70;100.00;102223.44;4911617;29;20526;-77
2022/03/21 03:23:30;;;;;;;3.35;0.80;;;;;;;8.70;100.00;102223.44;4928865;29;20471;-77
2022/03/21 03:26:00;;;;;;;2.08;0.80;;;;;;;8.70;100.00;102232.06;4917292;29;20047;-77
2022/03/21 03:28:31;;;;;;;1.58;0.70;;;;;;;8.71;100.00;102245.88;4930783;29;20509;-79
2022/03/21 03:31:00;;;;;;;1.23;0.65;;;;;;;8.72;100.00;102245.94;4930220;29;20056;-78
2022/03/21 03:33:29;;;;;;;0.80;0.35;;;;;;;8.71;100.00;102231.28;4929989;29;20239;-77
2022/03/21 03:35:58;;;;;;;4.30;1.10;;;;;;;8.68;100.00;102243.09;4930596;28;20063;-78
2022/03/21 03:38:27;;;;;;;1.25;0.43;;;;;;;8.68;100.00;102244.00;4915745;29;20075;-77
2022/03/21 03:40:55;;;;;;;1.08;0.50;;;;;;;8.69;100.00;102242.31;4924154;29;20051;-74
2022/03/21 03:43:24;;;;;;;2.88;1.02;;;;;;;8.67;100.00;102238.75;4929748;29;20060;-77
2022/03/21 03:45:57;;;;;;;3.35;1.40;;;;;;;8.68;100.00;102225.94;4933996;29;20043;-79
2022/03/21 03:48:25;;;;;;;;;;;;;;;8.69;100.00;102238.03;4930500;29;20058;-80
2022/03/21 03:50:53;;;;;;;3.17;0.85;;;;;;;8.69;100.00;102230.28;4932704;29;20363;-79
2022/03/21 03:53:22;;;;;;;7.03;1.27;;;;;;;8.69;100.00;102242.31;4934119;29;20095;-77
2022/03/21 03:55:50;;;;;;;1.40;1.08;;;;;;;8.66;100.00;102227.53;4915046;29;20084;-78
2022/03/21 03:58:19;;;;;;;2.38;0.90;;;;;;;8.67;100.00;102228.41;4924626;29;20126;-78
2022/03/21 04:00:47;;;;;;;2.78;1.00;;;;;;;8.64;100.00;102228.25;4932272;29;20048;-78
2022/03/21 04:06:02;;;;;;;0.73;0.70;;;;;;;8.63;100.00;102221.28;4933732;29;20071;-79
2022/03/21 04:08:31;;;;;;;2.10;0.93;;;;;;;8.58;100.00;102213.25;4933055;29;20221;-78
2022/03/21 04:10:59;;;;;;;1.45;0.93;;;;;;;8.55;100.00;102221.72;4925436;29;20052;-78
2022/03/21 04:13:28;;;;;;;2.70;1.13;;;;;;;8.55;100.00;102229.44;4928258;29;20044;-76
2022/03/21 04:15:57;;;;;;;1.95;1.30;;;;;;;8.57;100.00;102234.72;4914537;29;20044;-76
2022/03/21 04:18:27;;;;;;;1.95;0.88;;;;;;;8.56;100.00;102236.38;4926219;29;20048;-77
2022/03/21 04:20:56;;;;;;;2.88;1.00;;;;;;;8.49;100.00;102234.22;4921347;29;20047;-78
2022/03/21 04:23:25;;;;;;;3.17;0.90;;;;;;;8.42;100.00;102236.34;4930346;29;20065;-78
2022/03/21 04:25:53;;;;;;;2.00;1.02;;;;;;;8.39;100.00;102226.69;4919572;29;20103;-77
2022/03/21 04:28:22;;;;;;;3.90;1.67;;;;;;;8.41;100.00;102237.13;4926250;29;20103;-78
2022/03/21 04:30:51;;;;;;;1.45;0.85;;;;;;;8.42;100.00;102239.81;4932677;29;20047;-79
2022/03/21 04:33:19;;;;;;;1.27;0.60;;;;;;;8.39;100.00;102232.75;4924381;29;20155;-78
2022/03/21 04:35:49;;;;;;;1.70;0.75;;;;;;;8.38;100.00;102236.13;4917966;28;20060;-79
2022/03/21 04:38:18;;;;;;;0.98;0.70;;;;;;;8.33;100.00;102216.00;4933711;29;20107;-78
2022/03/21 04:40:48;;;;;;;2.17;0.85;;;;;;;8.40;100.00;102228.50;4935208;29;20056;-78
2022/03/21 04:43:20;;;;;;;1.75;0.77;;;;;;;8.41;100.00;102230.31;4926945;29;20060;-77
2022/03/21 04:45:49;;;;;;;3.90;0.90;;;;;;;8.42;100.00;102231.19;4925931;29;20075;-78
2022/03/21 04:48:18;;;;;;;1.95;0.85;;;;;;;8.38;100.00;102227.47;4929238;29;20056;-76
2022/03/21 04:50:46;;;;;;;0.88;0.77;;;;;;;8.35;100.00;102229.88;4923907;29;20059;-78
2022/03/21 04:53:17;;;;;;;1.95;1.00;;;;;;;8.29;100.00;102224.31;4933216;29;20051;-78
2022/03/21 04:55:46;;;;;;;1.50;0.82;;;;;;;8.25;100.00;102223.25;4933284;29;20079;-79
2022/03/21 04:58:14;;;;;;;2.17;0.82;;;;;;;8.26;100.00;102224.16;4933425;29;20111;-79
2022/03/21 05:00:44;;;;;;;2.15;0.70;;;;;;;8.27;100.00;102225.91;4933257;29;20132;-79
2022/03/21 05:03:12;;;;;;;2.78;0.77;;;;;;;8.30;100.00;102220.97;4932637;29;20134;-79
2022/03/21 05:05:41;;;;;;;1.98;0.70;;;;;;;8.33;100.00;102216.88;4934137;29;20048;-79
2022/03/21 05:08:09;;;;;;;3.70;0.95;;;;;;;8.35;100.00;102216.97;4935008;29;20051;-79
2022/03/21 05:10:40;;;;;;;1.73;1.00;;;;;;;8.36;100.00;102211.00;4932407;29;20048;-79
2022/03/21 05:13:09;;;;;;;1.88;0.65;;;;;;;8.37;100.00;102213.69;4932789;29;20573;-78
2022/03/21 05:15:37;;;;;;;1.48;0.80;;;;;;;8.37;100.00;102215.38;4933373;29;20107;-80
2022/03/21 05:18:06;;;;;;;0.60;0.45;;;;;;;8.37;100.00;102213.69;4932939;29;20083;-78
2022/03/21 05:20:35;;;;;;;4.13;0.60;;;;;;;8.36;100.00;102216.16;4932875;29;20107;-80
2022/03/21 05:31:29;;;;;;;1.83;0.88;;;;;;;8.22;100.00;102202.41;4918721;29;20530;-77
2022/03/21 05:36:50;;;;;;;9.52;1.23;;;;;;;8.17;100.00;102201.25;4919507;28;20074;-77
2022/03/21 05:39:25;;;;;;;0.60;0.40;;;;;;;8.15;100.00;102201.19;4920783;29;20059;-76
2022/03/21 05:41:55;;;;;;;0.98;0.50;;;;;;;8.11;100.00;102196.63;4912847;29;20044;-77
2022/03/21 05:44:24;;;;;;;3.55;0.80;;;;;;;8.17;100.00;102202.13;4914768;29;20091;-76
2022/03/21 05:46:52;;;;;;;1.92;0.75;;;;;;;8.20;100.00;102198.88;4928789;29;20056;-79
2022/03/21 05:49:20;;;;;;;0.90;0.60;;;;;;;8.21;100.00;102195.50;4930790;29;20055;-79
2022/03/21 05:51:48;;;;;;;4.10;1.00;;;;;;;8.22;100.00;102188.66;4918253;29;20651;-79
2022/03/21 05:54:17;;;;;;;4.50;0.85;;;;;;;8.26;100.00;102193.22;4913058;29;20491;-79
2022/03/21 05:56:47;;;;;;;1.48;0.80;;;;;;;8.30;100.00;102195.19;4925249;29;20043;-79
2022/03/21 06:02:01;;;;;;;1.63;1.08;;;;;;;8.34;100.00;102197.16;4884236;29;20052;-79
2022/03/21 06:04:30;;;;;;;3.35;0.80;;;;;;;8.36;100.00;102198.13;4928789;29;20067;-78
2022/03/21 06:06:59;;;;;;;2.50;0.68;;;;;;;8.37;100.00;102189.59;4923830;29;20052;-78
2022/03/21 06:09:27;;;;;;;1.65;0.90;;;;;;;8.37;100.00;102194.75;4927193;29;20055;-78
2022/03/21 06:11:56;;;;;;;1.65;0.70;;;;;;;8.38;100.00;102193.94;4912358;29;20056;-78
2022/03/21 06:14:26;;;;;;;1.15;0.57;;;;;;;8.40;100.00;102202.72;4924605;29;20067;-78
2022/03/21 06:16:54;;;;;;;1.95;0.88;;;;;;;8.42;100.00;102203.69;4918002;29;20051;-79
2022/03/21 06:19:22;;;;;;;1.05;0.57;;;;;;;8.42;100.00;102203.69;4931611;29;20056;-79
2022/03/21 06:21:51;;;;;;;2.40;0.70;;;;;;;8.44;100.00;102202.09;4928566;29;20127;-78
2022/03/21 06:24:19;;;;;;;5.20;0.90;;;;;;;8.46;100.00;102208.25;4913814;29;20506;-78
2022/03/21 06:26:48;;;;;;;4.55;1.10;;;;;;;8.48;100.00;102209.25;4923415;29;20126;-78
2022/03/21 06:29:16;;;;;;;0.80;0.50;;;;;;;8.46;100.00;102203.09;4931035;29;20056;-78
2022/03/21 06:31:46;;;;;;;1.42;0.60;;;;;;;8.49;100.00;102215.28;4934183;29;20084;-78
2022/03/21 06:34:15;;;;;;;3.13;0.85;;;;;;;8.48;100.00;102216.97;4916828;29;20542;-78
2022/03/21 06:36:50;;;;;;;1.98;0.90;;;;;;;8.48;100.00;102222.13;4914465;28;20059;-77
2022/03/21 06:39:18;;;;;;;2.35;0.82;;;;;;;8.47;100.00;102214.28;4925285;29;20048;-78
2022/03/21 06:41:46;;;;;;;3.95;1.00;;;;;;;8.46;100.00;102215.09;4930248;29;20126;-77
2022/03/21 06:44:15;;;;;;;1.27;0.73;;;;;;;8.46;100.00;102222.84;4928789;29;20063;-78
2022/03/21 06:46:43;;;;;;;2.95;0.85;;;;;;;8.46;100.00;102220.25;4912594;29;20059;-78
2022/03/21 06:49:14;;;;;;;1.17;0.68;;;;;;;8.47;100.00;102219.44;4911816;29;20143;-79
2022/03/21 06:51:42;;;;;;;1.95;0.77;;;;;;;8.44;100.00;102219.28;4925520;29;20048;-78
2022/03/21 06:54:11;;;;;;;1.83;0.70;;;;;;;8.42;100.00;102221.75;4912432;29;20562;-78
2022/03/21 06:56:39;;;;;;;2.65;1.10;;;;;;;8.42;100.00;102226.91;4925118;29;20131;-79
2022/03/21 06:59:07;;;;;;;2.80;1.42;;;;;;;8.41;100.00;102219.97;4917997;29;20130;-78
2022/03/21 07:01:37;;;;;;;3.47;1.55;;;;;;;8.40;100.00;102223.34;4930977;29;20082;-78
2022/03/21 07:04:06;;;;;;;2.50;1.02;;;;;;;8.40;100.00;102223.34;4930784;29;20063;-78
2022/03/21 07:06:36;;;;;;;3.97;1.15;;;;;;;8.41;100.00;102227.72;4930033;29;20062;-78
2022/03/21 07:09:04;;;;;;;2.92;0.98;;;;;;;8.39;100.00;102230.16;4929871;29;20048;-78
2022/03/21 07:11:35;;;;;;;1.88;1.10;;;;;;;8.35;100.00;102220.44;4931511;29;20047;-77
2022/03/21 07:14:03;;;;;;;4.30;1.52;;;;;;;8.31;100.00;102233.94;4916711;29;20150;-79
2022/03/21 07:16:32;;;;;;;2.97;1.45;;;;;;;8.33;100.00;102228.88;4913682;29;20086;-78
2022/03/21 07:19:00;;;;;;;2.83;1.38;;;;;;;8.29;100.00;102232.97;4920916;29;20107;-78
2022/03/21 07:21:29;;;;;;;4.13;1.10;;;;;;;8.22;100.00;102220.47;4934038;29;20092;-78
2022/03/21 07:23:59;;;;;;;3.33;1.00;;;;;;;8.27;100.00;102225.91;4933804;29;20143;-78
2022/03/21 07:26:27;;;;;;;3.10;1.10;;;;;;;8.22;100.00;102222.16;4923566;29;20473;-78
2022/03/21 07:28:56;;;;;;;2.10;1.15;;;;;;;8.18;100.00;102226.25;4916494;29;20106;-78
2022/03/21 07:31:24;;;;;;;3.38;1.20;;;;;;;8.18;100.00;102232.31;4919049;29;20553;-79
2022/03/21 07:33:53;;;;;;;4.57;1.30;;;;;;;8.22;100.00;102229.91;4915740;29;20059;-78
2022/03/21 07:36:21;;;;;;;2.38;1.30;;;;;;;8.19;100.00;102234.06;4915597;28;20119;-78
2022/03/21 07:38:50;;;;;;;2.10;1.10;;;;;;;8.17;100.00;102222.75;4916251;29;20079;-78
2022/03/21 07:41:23;;;;;;;4.18;1.33;;;;;;;8.18;100.00;102222.00;4917964;29;20087;-77
2022/03/21 07:43:52;;;;;;;5.35;1.35;;;;;;;8.16;100.00;102200.38;4933555;29;20705;-77
2022/03/21 07:49:06;;;;;;;2.60;1.00;;;;;;;8.13;100.00;102218.25;4927515;29;20063;-77
2022/03/21 07:51:34;;;;;;;2.17;0.98;;;;;;;8.17;100.00;102220.19;4915348;29;20080;-78
2022/03/21 07:54:03;;;;;;;4.90;1.10;;;;;;;8.19;100.00;102223.75;4925413;29;20095;-78
2022/03/21 07:56:33;;;;;;;1.73;0.93;;;;;;;8.21;100.00;102212.66;4932765;29;20047;-78
2022/03/21 07:59:03;;;;;;;1.60;1.10;;;;;;;8.22;100.00;102220.47;4915162;29;20052;-78
2022/03/21 08:01:32;;;;;;;3.25;1.33;;;;;;;8.23;100.00;102223.97;4926632;29;20051;-78
2022/03/21 08:04:03;;;;;;;2.25;0.98;;;;;;;8.25;100.00;102222.38;4932874;29;20127;-78
2022/03/21 08:06:32;;;;;;;1.08;0.65;;;;;;;8.24;100.00;102225.72;4934183;29;20055;-78
2022/03/21 08:09:00;;;;;;;2.63;1.17;;;;;;;8.22;100.00;102227.31;4933553;29;20150;-78
2022/03/21 08:11:29;;;;;;;2.90;1.30;;;;;;;8.21;100.00;102231.59;4919435;29;20051;-78
2022/03/21 08:13:59;;;;;;;0.95;0.73;;;;;;;8.22;100.00;102232.47;4933117;29;20059;-78
2022/03/21 08:16:28;;;;;;;4.18;1.10;;;;;;;8.23;100.00;102219.69;4932666;29;20051;-78
2022/03/21 08:18:57;;;;;;;2.83;1.58;;;;;;;8.25;100.00;102219.81;4914710;29;20490;-78
2022/03/21 08:21:26;;;;;;;2.20;1.33;;;;;;;8.26;100.00;102221.56;4914080;29;20052;-78
2022/03/21 08:23:54;;;;;;;4.05;0.95;;;;;;;8.26;100.00;102221.56;4918332;29;20143;-78
2022/03/21 08:26:23;;;;;;;2.03;1.02;;;;;;;8.25;100.00;102227.53;4924733;29;20052;-80
2022/03/21 08:28:51;;;;;;;5.03;1.33;;;;;;;8.25;100.00;102228.41;4918584;29;20052;-78
2022/03/21 08:31:22;;;;;;;5.53;1.30;;;;;;;8.23;100.00;102239.44;4917266;29;20569;-78
2022/03/21 08:33:50;;;;;;;1.85;1.00;;;;;;;8.12;100.00;102231.91;4914568;29;20494;-78
2022/03/21 08:36:18;;;;;;;1.65;1.08;;;;;;;8.18;100.00;102242.63;4933344;28;20071;-78
2022/03/21 08:38:47;;;;;;;2.13;1.23;;;;;;;8.19;100.00;102234.06;4884804;29;20120;-78
2022/03/21 08:41:16;;;;;;;1.83;1.20;;;;;;;8.21;100.00;102241.03;4880278;29;20068;-78
2022/03/21 08:43:45;;;;;;;2.80;1.83;;;;;;;8.20;100.00;102240.16;4888664;29;20053;-78
2022/03/21 08:46:13;;;;;;;7.70;1.90;;;;;;;8.19;100.00;102244.38;4879969;29;20056;-78
2022/03/21 08:51:29;;;;;;;5.97;2.10;;;;;;;8.21;100.00;102247.06;4893780;29;20514;-79
2022/03/21 08:53:57;;;;;;;3.65;1.48;;;;;;;8.17;100.00;102251.13;4876409;29;20053;-79
2022/03/21 08:56:28;;;;;;;8.30;1.73;;;;;;;8.14;100.00;102240.63;4876545;29;20049;-79
2022/03/21 08:58:57;;;;;;;2.13;1.20;;;;;;;8.08;100.00;102240.22;4892046;29;20115;-78
2022/03/21 09:01:25;;;;;;;3.08;1.23;;;;;;;8.09;100.00;102241.16;4887115;29;20088;-78
2022/03/21 09:03:55;;;;;;;1.77;1.08;;;;;;;8.06;100.00;102246.97;4893446;29;20550;-78
2022/03/21 09:06:24;;;;;;;1.98;1.08;;;;;;;8.06;100.00;102246.97;4895113;29;20049;-79
2022/03/21 09:08:52;;;;;;;2.85;1.15;;;;;;;8.07;100.00;102245.31;4894640;29;20113;-79
2022/03/21 09:11:21;;;;;;;3.47;1.42;;;;;;;8.08;100.00;102241.94;4891356;29;20118;-78
2022/03/21 09:13:50;;;;;;;3.17;1.23;;;;;;;8.03;100.00;102239.06;4892192;29;20060;-79
2022/03/21 09:16:19;;;;;;;3.55;1.75;;;;;;;8.05;100.00;102246.91;4895057;29;20080;-78
2022/03/21 09:18:47;;;;;;;2.10;1.20;;;;;;;8.06;100.00;102239.25;4893449;29;20116;-79
2022/03/21 09:21:17;;;;;;;4.07;1.80;;;;;;;8.08;100.00;102240.22;4884630;29;20044;-77
2022/03/21 09:23:46;;;;;;;3.03;1.40;;;;;;;8.08;100.00;102240.22;4880698;29;20132;-78
2022/03/21 09:26:15;;;;;;;1.17;1.00;;;;;;;8.09;100.00;102241.16;4882957;29;20052;-78
2022/03/21 09:28:44;;;;;;;3.17;1.65;;;;;;;8.08;100.00;102237.66;4888074;29;20072;-77
2022/03/21 09:31:13;;;;;;;3.92;1.80;;;;;;;8.00;100.00;102215.69;4890348;29;20136;-77
2022/03/21 09:33:42;;;;;;;3.22;1.40;;;;;;;8.07;100.00;102233.31;4892084;29;20117;-79
2022/03/21 09:36:11;;;;;;;3.13;1.40;;;;;;;8.08;100.00;102229.03;4885543;29;20057;-76
2022/03/21 09:38:41;;;;;;;4.65;1.58;;;;;;;8.08;100.00;102226.47;4931488;28;20078;-77
2022/03/21 09:41:10;;;;;;;4.95;1.17;;;;;;;8.08;100.00;102234.19;4930673;29;20056;-77
2022/03/21 09:43:40;;;;;;;5.72;1.48;;;;;;;8.08;100.00;102237.66;4924906;29;20043;-78
2022/03/21 09:46:10;;;;;;;5.05;1.80;;;;;;;8.08;100.00;102229.91;4914808;29;20055;-78
2022/03/21 09:48:38;;;;;;;4.20;1.60;;;;;;;8.08;100.00;102227.34;4921023;29;20494;-78
2022/03/21 09:51:07;;;;;;;4.03;1.40;;;;;;;8.09;100.00;102221.41;4927079;29;20039;-78
2022/03/21 09:53:37;;;;;;;2.25;0.98;;;;;;;7.97;100.00;102211.22;4931709;29;20106;-78
2022/03/21 09:56:08;;;;;;;4.25;1.45;;;;;;;8.05;100.00;102221.13;4929792;29;20056;-78
2022/03/21 09:58:37;;;;;;;1.60;1.23;;;;;;;8.05;100.00;102224.59;4931483;29;20074;-78
2022/03/21 10:01:05;;;;;;;4.25;1.38;;;;;;;8.06;100.00;102228.03;4918085;29;20048;-78
2022/03/21 10:03:35;;;;;;;5.80;1.33;;;;;;;8.03;100.00;102208.13;4930899;29;20052;-78
2022/03/21 10:06:24;;;;;;;3.83;1.52;;;;;;;8.02;100.00;102213.16;4931432;29;20078;-79
2022/03/21 10:09:04;;;;;;;3.90;1.48;;;;;;;8.03;100.00;102210.69;4931376;29;20123;-79
2022/03/21 10:11:35;;;;;;;3.03;1.48;;;;;;;8.03;100.00;102207.25;4919670;29;20055;-78
2022/03/21 10:14:32;;;;;;;3.15;1.65;;;;;;;8.03;100.00;102208.13;4924411;29;20131;-78
2022/03/21 10:17:02;;;;;;;3.28;1.38;;;;;;;8.03;100.00;102210.69;4912989;29;20055;-78
2022/03/21 10:19:43;;;;;;;3.17;1.27;;;;;;;8.02;100.00;102208.94;4912601;29;20493;-78
2022/03/21 10:22:13;;;;;;;4.40;1.73;;;;;;;8.01;100.00;102195.94;4927014;29;20181;-79
2022/03/21 10:24:43;;;;;;;5.43;1.50;;;;;;;7.99;100.00;102198.41;4930088;29;20135;-78
2022/03/21 10:27:36;;;;;;;3.63;1.25;;;;;;;7.98;100.00;102196.63;4920707;29;20056;-78
2022/03/21 10:30:08;;;;;;;5.88;1.52;;;;;;;7.93;100.00;102192.88;4921300;29;20122;-78
2022/03/21 10:32:39;;;;;;;4.05;1.25;;;;;;;7.88;100.00;102186.53;4930860;29;20058;-78
2022/03/21 10:35:12;;;;;;;2.85;1.02;;;;;;;7.83;100.00;102185.34;4919006;29;20039;-78
2022/03/21 10:37:49;;;;;;;2.20;0.85;;;;;;;7.76;100.00;102190.13;4919975;28;20462;-78
2022/03/21 10:40:30;;;;;;;1.85;1.05;;;;;;;7.76;100.00;102189.22;4912326;29;20498;-78
2022/03/21 10:43:03;;;;;;;3.85;1.33;;;;;;;7.75;100.00;102185.75;4918203;29;20048;-79
2022/03/21 10:45:43;;;;;;;1.58;1.00;;;;;;;7.72;100.00;102185.56;4924072;29;20052;-78
2022/03/21 10:48:13;;;;;;;3.70;1.33;;;;;;;7.72;100.00;102187.28;4913540;29;20056;-77
2022/03/21 10:50:43;;;;;;;2.60;1.30;;;;;;;7.67;100.00;102179.25;4913100;29;20131;-78
2022/03/21 10:53:15;;;;;;;1.17;0.75;;;;;;;7.67;100.00;102186.06;4913040;29;20486;-78
2022/03/21 10:55:44;;;;;;;1.40;0.93;;;;;;;7.67;100.00;102184.41;4912330;29;20067;-79
2022/03/21 10:58:16;;;;;;;1.10;0.77;;;;;;;7.67;100.00;102179.25;4913228;29;20059;-78
2022/03/21 11:00:45;;;;;;;2.58;0.90;;;;;;;7.67;100.00;102168.03;4924088;29;20048;-77
2022/03/21 11:03:15;;;;;;;6.25;1.20;;;;;;;7.66;100.00;102172.28;4925493;29;20048;-78
2022/03/21 11:05:45;;;;;;;4.85;1.02;;;;;;;7.65;100.00;102167.03;4912351;29;20510;-77
2022/03/21 11:08:16;;;;;;;3.30;1.45;;;;;;;7.67;100.00;102170.59;4923526;29;20099;-77
2022/03/21 11:10:47;;;;;;;3.13;0.85;;;;;;;7.66;100.00;102174.88;4914333;29;20058;-77
2022/03/21 11:13:20;;;;;;;1.23;0.80;;;;;;;7.65;100.00;102167.03;4926050;29;20078;-76
2022/03/21 11:15:49;;;;;;;1.05;0.80;;;;;;;7.64;100.00;102158.41;4912218;29;20056;-77
2022/03/21 11:18:21;;;;;;;2.08;0.88;;;;;;;7.64;100.00;102168.72;4923156;29;20115;-76
2022/03/21 11:20:50;;;;;;;3.13;0.90;;;;;;;7.65;100.00;102159.31;4915501;29;20083;-77
2022/03/21 11:23:18;;;;;;;3.75;1.00;;;;;;;7.64;100.00;102163.56;4921411;29;20847;-78
2022/03/21 11:25:52;;;;;;;3.05;0.75;;;;;;;7.63;100.00;102164.38;4934192;29;20055;-77
2022/03/21 11:28:43;;;;;;;2.17;1.02;;;;;;;7.63;100.00;102166.03;4930986;29;20126;-77
2022/03/21 11:31:28;;;;;;;1.00;0.60;;;;;;;7.61;100.00;102168.53;4927412;29;20056;-77
2022/03/21 11:34:09;;;;;;;3.28;0.82;;;;;;;7.60;100.00;102164.16;4926812;29;20422;-77
2022/03/21 11:36:52;;;;;;;3.22;0.90;;;;;;;7.61;100.00;102163.38;4930748;28;20493;-78
2022/03/21 11:39:21;;;;;;;4.10;0.90;;;;;;;7.62;100.00;102164.28;4882317;29;20049;-78
2022/03/21 11:42:01;;;;;;;1.13;0.80;;;;;;;7.62;100.00;102164.28;4887974;29;20057;-78
2022/03/21 11:44:31;;;;;;;4.38;1.10;;;;;;;7.59;100.00;102170.13;4892316;29;20055;-78
2022/03/21 11:47:24;;;;;;;1.35;0.80;;;;;;;7.58;100.00;102163.16;4892144;29;20117;-77
2022/03/21 11:49:55;;;;;;;1.17;0.60;;;;;;;7.60;100.00;102166.75;4885714;29;20471;-78
2022/03/21 11:52:24;;;;;;;2.15;0.80;;;;;;;7.62;100.00;102175.47;4878867;29;20132;-78
2022/03/21 11:54:53;;;;;;;1.73;0.70;;;;;;;7.67;100.00;102174.09;4892687;29;20056;-78
2022/03/21 11:57:31;;;;;;;1.45;0.80;;;;;;;7.69;100.00;102172.47;4889771;29;20065;-77
2022/03/21 12:00:04;;;;;;;2.30;0.70;;;;;;;7.71;100.00;102165.75;4888656;29;20048;-78
2022/03/21 12:02:57;;;;;;;0.80;0.60;;;;;;;7.76;100.00;102163.44;4892068;29;20072;-78
2022/03/21 12:05:54;;;;;;;2.15;1.08;;;;;;;7.79;100.00;102173.97;4888801;29;20053;-78